Time;durP1;ratioP1;P1;durP2;ratioP2;P2;SDS_P1;SDS_P2;PMS_P1;PMS_P2;Temp;Humidity;BMP_temperature;BMP_pressure;BME280_temperature;BME280_humidity;BME280_pressure;Samples;Min_cycle;Max_cycle;Signal;HPM_P1;HPM_P2
2023/09/06 00:01:10;;;;;;;3.47;3.17;;;15.30;99.90;;;;;;490477;241;29221;-75
2023/09/06 00:03:16;;;;;;;3.77;3.03;;;15.30;99.90;;;;;;490456;241;29356;-74
2023/09/06 00:05:17;;;;;;;3.37;3.07;;;15.30;99.90;;;;;;490499;241;28799;-75
2023/09/06 00:07:23;;;;;;;5.80;3.13;;;15.30;99.90;;;;;;490473;241;29374;-75
2023/09/06 00:09:23;;;;;;;3.40;3.03;;;15.30;99.90;;;;;;490493;241;28882;-75
2023/09/06 00:11:30;;;;;;;3.40;3.10;;;15.30;99.90;;;;;;490492;241;28807;-75
2023/09/06 00:13:32;;;;;;;4.77;3.67;;;15.30;99.90;;;;;;490494;241;29306;-76
2023/09/06 00:15:36;;;;;;;4.03;3.17;;;15.30;99.90;;;;;;490524;241;29445;-75
2023/09/06 00:17:38;;;;;;;3.27;2.97;;;15.20;99.90;;;;;;490483;241;28815;-75
2023/09/06 00:19:38;;;;;;;3.73;2.60;;;15.10;99.90;;;;;;490454;242;29335;-75
2023/09/06 00:21:40;;;;;;;19.20;9.97;;;15.10;99.90;;;;;;490473;241;29267;-74
2023/09/06 00:23:43;;;;;;;19.90;11.70;;;15.10;99.90;;;;;;490509;241;29406;-73
2023/09/06 00:25:45;;;;;;;28.93;15.20;;;15.00;99.90;;;;;;490498;241;28820;-76
2023/09/06 00:27:54;;;;;;;136.50;63.43;;;15.00;99.90;;;;;;490419;242;29339;-74
2023/09/06 00:29:56;;;;;;;123.93;55.07;;;15.00;99.90;;;;;;490501;242;28870;-73
2023/09/06 00:32:00;;;;;;;60.57;30.00;;;14.90;99.90;;;;;;490556;241;29320;-74
2023/09/06 00:34:02;;;;;;;52.87;26.17;;;14.90;99.90;;;;;;490504;241;28892;-73
2023/09/06 00:36:03;;;;;;;55.80;27.60;;;14.90;99.90;;;;;;490464;241;29987;-74
2023/09/06 00:38:07;;;;;;;45.80;22.73;;;14.90;99.90;;;;;;490494;242;29275;-72
2023/09/06 00:40:24;;;;;;;40.17;20.43;;;14.80;99.90;;;;;;490073;242;28855;-77
2023/09/06 00:42:24;;;;;;;35.37;18.30;;;14.70;99.90;;;;;;489990;242;28888;-75
2023/09/06 00:44:25;;;;;;;33.53;17.47;;;14.60;99.90;;;;;;490336;242;30082;-74
2023/09/06 00:46:28;;;;;;;24.47;12.73;;;14.60;99.90;;;;;;490517;241;28813;-72
2023/09/06 00:48:31;;;;;;;16.33;9.57;;;14.60;99.90;;;;;;490450;242;29366;-73
2023/09/06 00:50:32;;;;;;;16.27;9.40;;;14.50;99.90;;;;;;490474;242;28981;-75
2023/09/06 00:52:33;;;;;;;11.60;7.07;;;14.50;99.90;;;;;;490492;241;29258;-73
2023/09/06 00:54:39;;;;;;;10.13;6.63;;;14.40;99.90;;;;;;490487;241;29320;-75
2023/09/06 00:56:42;;;;;;;10.33;6.40;;;14.40;99.90;;;;;;490457;241;29333;-72
2023/09/06 00:58:44;;;;;;;8.53;6.50;;;14.40;99.90;;;;;;490502;241;28970;-77
2023/09/06 01:00:47;;;;;;;8.37;6.20;;;14.40;99.90;;;;;;490507;241;28855;-73
2023/09/06 01:02:48;;;;;;;8.60;5.40;;;14.50;99.90;;;;;;490497;241;28924;-73
2023/09/06 01:04:49;;;;;;;6.40;5.10;;;14.50;99.90;;;;;;490489;241;29296;-73
2023/09/06 01:06:55;;;;;;;6.13;4.40;;;14.40;99.90;;;;;;490535;241;29414;-76
2023/09/06 01:08:52;;;;;;;6.03;4.50;;;14.40;99.90;;;;;;490432;242;29304;-73
2023/09/06 01:13:16;;;;;;;4.53;4.10;;;14.40;99.90;;;;;;490496;242;29289;-74
2023/09/06 01:15:17;;;;;;;6.33;4.73;;;14.30;99.90;;;;;;490548;241;29409;-74
2023/09/06 01:17:18;;;;;;;6.97;5.00;;;14.10;99.90;;;;;;490545;241;28886;-73
2023/09/06 01:19:26;;;;;;;9.73;4.53;;;14.10;99.90;;;;;;490546;241;28918;-74
2023/09/06 01:21:27;;;;;;;5.60;4.40;;;14.10;99.90;;;;;;490516;241;28866;-74
2023/09/06 01:28:08;;;;;;;7.47;4.03;;;14.10;99.90;;;;;;471709;250;28943;-75
2023/09/06 01:30:09;;;;;;;5.20;3.70;;;14.10;99.90;;;;;;468644;253;29431;-75
2023/09/06 01:32:10;;;;;;;5.73;3.67;;;14.10;99.90;;;;;;471908;250;28864;-75
2023/09/06 01:34:11;;;;;;;4.90;4.40;;;14.10;99.90;;;;;;468644;253;28539;-75
2023/09/06 01:36:13;;;;;;;5.00;4.33;;;14.00;99.90;;;;;;471840;252;28919;-75
2023/09/06 01:38:15;;;;;;;5.10;4.17;;;14.00;99.90;;;;;;468646;253;28609;-75
2023/09/06 01:40:19;;;;;;;4.87;4.20;;;14.00;99.90;;;;;;471813;251;28854;-75
2023/09/06 01:42:22;;;;;;;7.40;4.30;;;14.00;99.90;;;;;;468589;254;28874;-75
2023/09/06 01:44:20;;;;;;;4.37;3.70;;;14.00;99.90;;;;;;471663;252;28795;-74
2023/09/06 01:46:23;;;;;;;5.77;4.50;;;14.00;99.90;;;;;;472876;251;28475;-77
2023/09/06 01:48:23;;;;;;;5.27;3.90;;;14.00;99.90;;;;;;471816;252;28799;-76
2023/09/06 01:50:24;;;;;;;5.93;4.10;;;14.00;99.90;;;;;;468665;253;28616;-75
2023/09/06 01:52:25;;;;;;;5.10;4.10;;;14.00;99.90;;;;;;471876;252;28844;-76
2023/09/06 01:54:27;;;;;;;3.40;3.10;;;13.90;99.90;;;;;;468589;253;28818;-74
2023/09/06 01:56:28;;;;;;;4.67;3.73;;;13.80;99.90;;;;;;471854;252;29386;-74
2023/09/06 01:58:32;;;;;;;5.10;4.60;;;13.80;99.90;;;;;;468634;253;30041;-75
2023/09/06 02:00:31;;;;;;;4.57;3.63;;;13.70;99.90;;;;;;471662;252;29354;-74
2023/09/06 02:02:32;;;;;;;6.10;3.97;;;13.60;99.90;;;;;;468589;254;29321;-75
2023/09/06 02:04:33;;;;;;;5.67;4.13;;;13.70;99.90;;;;;;471877;252;28463;-74
2023/09/06 02:06:34;;;;;;;7.00;4.53;;;13.60;99.90;;;;;;468582;253;28454;-75
2023/09/06 02:08:35;;;;;;;5.87;3.93;;;13.60;99.90;;;;;;471881;252;28400;-75
2023/09/06 02:10:37;;;;;;;5.87;4.13;;;13.50;99.90;;;;;;468643;253;28599;-75
2023/09/06 02:12:38;;;;;;;5.20;4.13;;;13.50;99.90;;;;;;471875;252;28539;-75
2023/09/06 02:14:39;;;;;;;4.57;3.77;;;13.40;99.90;;;;;;468614;253;28265;-75
2023/09/06 02:16:40;;;;;;;6.50;4.03;;;13.40;99.90;;;;;;471836;252;28440;-75
2023/09/06 02:18:42;;;;;;;5.03;3.87;;;13.50;99.90;;;;;;468609;253;28244;-76
2023/09/06 02:20:43;;;;;;;7.10;3.90;;;13.50;99.90;;;;;;471667;252;28815;-75
2023/09/06 02:22:44;;;;;;;4.27;3.77;;;13.40;99.90;;;;;;468627;253;28944;-75
2023/09/06 02:24:45;;;;;;;4.50;3.70;;;13.40;99.90;;;;;;471851;252;28899;-75
2023/09/06 02:26:47;;;;;;;4.37;3.97;;;13.40;99.90;;;;;;468632;253;28913;-75
2023/09/06 02:28:50;;;;;;;3.60;3.30;;;13.40;99.90;;;;;;471878;252;28994;-75
2023/09/06 02:30:49;;;;;;;3.77;3.37;;;13.30;99.90;;;;;;468496;254;28282;-75
2023/09/06 02:32:51;;;;;;;3.87;3.30;;;13.30;99.90;;;;;;471882;252;28388;-75
2023/09/06 02:34:52;;;;;;;4.73;3.50;;;13.30;99.90;;;;;;468564;254;28184;-74
2023/09/06 02:36:55;;;;;;;4.67;2.83;;;;;;;;;;471898;252;28408;-75
2023/09/06 02:38:57;;;;;;;3.47;3.17;;;13.10;99.90;;;;;;468650;253;27047;-75
2023/09/06 02:40:57;;;;;;;3.90;3.30;;;13.10;99.90;;;;;;471772;252;28983;-75
2023/09/06 02:42:58;;;;;;;3.77;3.40;;;13.20;99.90;;;;;;468619;253;28401;-75
2023/09/06 02:44:59;;;;;;;3.50;3.10;;;13.10;99.90;;;;;;471877;252;28229;-75
2023/09/06 02:47:03;;;;;;;3.70;3.30;;;;;;;;;;468625;253;28316;-75
2023/09/06 02:49:11;;;;;;;5.10;3.40;;;13.10;99.90;;;;;;471758;252;27045;-75
2023/09/06 02:51:08;;;;;;;3.50;3.20;;;13.10;99.90;;;;;;471215;252;29259;-74
2023/09/06 02:53:15;;;;;;;4.00;2.97;;;13.00;99.90;;;;;;468340;252;28764;-75
2023/09/06 02:55:10;;;;;;;4.27;3.37;;;13.00;99.90;;;;;;471049;252;28192;-76
2023/09/06 02:57:10;;;;;;;3.50;3.20;;;12.90;99.90;;;;;;468364;254;28191;-75
2023/09/06 02:59:12;;;;;;;4.03;3.63;;;12.90;99.90;;;;;;471687;252;28293;-76
2023/09/06 03:01:19;;;;;;;4.30;3.90;;;12.90;99.90;;;;;;468430;254;28432;-75
2023/09/06 03:03:15;;;;;;;4.13;3.73;;;12.90;99.90;;;;;;471160;252;28385;-75
2023/09/06 03:05:17;;;;;;;4.00;3.60;;;12.80;99.90;;;;;;468329;254;28354;-78
2023/09/06 03:07:15;;;;;;;4.57;3.57;;;12.80;99.90;;;;;;471481;252;28227;-76
2023/09/06 03:09:15;;;;;;;3.43;3.13;;;12.80;99.90;;;;;;468581;253;28203;-75
2023/09/06 03:11:16;;;;;;;5.20;3.30;;;12.80;99.90;;;;;;471903;252;28208;-76
2023/09/06 03:13:20;;;;;;;3.77;3.47;;;12.80;99.90;;;;;;468626;253;28709;-75
2023/09/06 03:15:22;;;;;;;3.53;3.23;;;12.70;99.90;;;;;;471714;252;29522;-75
2023/09/06 03:17:22;;;;;;;4.13;3.60;;;12.70;99.90;;;;;;468398;254;29345;-75
2023/09/06 03:19:21;;;;;;;6.73;3.50;;;12.60;99.90;;;;;;471752;252;28212;-75
2023/09/06 03:21:24;;;;;;;4.73;3.90;;;;;;;;;;468663;253;28203;-75
2023/09/06 03:23:25;;;;;;;5.17;3.93;;;12.40;99.90;;;;;;471894;251;26577;-75
2023/09/06 03:25:29;;;;;;;5.97;4.00;;;12.50;99.90;;;;;;471888;251;28766;-74
2023/09/06 03:27:30;;;;;;;6.30;3.80;;;12.50;99.90;;;;;;468663;253;28238;-75
2023/09/06 03:29:32;;;;;;;6.27;3.70;;;12.50;99.90;;;;;;471837;252;28287;-75
2023/09/06 03:31:34;;;;;;;4.13;3.70;;;12.40;99.90;;;;;;468625;253;28263;-76
2023/09/06 03:33:35;;;;;;;4.57;4.10;;;12.50;99.90;;;;;;471816;251;28877;-75
2023/09/06 03:35:35;;;;;;;4.97;4.30;;;12.50;99.90;;;;;;468586;254;28378;-75
2023/09/06 03:37:37;;;;;;;7.03;4.30;;;12.50;99.90;;;;;;471841;252;28556;-74
2023/09/06 03:39:41;;;;;;;4.50;4.10;;;12.50;99.90;;;;;;468565;253;28855;-75
2023/09/06 03:41:42;;;;;;;5.33;4.03;;;;;;;;;;471725;252;28882;-75
2023/09/06 03:43:42;;;;;;;7.20;4.80;;;12.40;99.90;;;;;;468588;251;26581;-75
2023/09/06 03:45:50;;;;;;;4.30;3.60;;;12.50;99.90;;;;;;471845;252;28479;-74
2023/09/06 03:47:46;;;;;;;6.27;4.33;;;12.50;99.90;;;;;;472117;251;28032;-75
2023/09/06 03:49:45;;;;;;;5.20;4.20;;;12.60;99.90;;;;;;471766;252;28094;-76
2023/09/06 03:51:48;;;;;;;8.13;4.30;;;12.60;99.90;;;;;;468593;253;28910;-75
2023/09/06 03:53:48;;;;;;;5.03;4.37;;;12.70;99.90;;;;;;471747;252;28779;-76
2023/09/06 03:55:50;;;;;;;4.07;3.67;;;12.70;99.90;;;;;;468599;253;29462;-75
2023/09/06 03:57:52;;;;;;;5.87;4.13;;;12.70;99.90;;;;;;471848;252;28177;-75
2023/09/06 03:59:52;;;;;;;4.40;4.00;;;12.60;99.90;;;;;;468561;254;28154;-76
2023/09/06 04:01:55;;;;;;;5.03;4.03;;;12.50;99.90;;;;;;471865;252;28138;-74
2023/09/06 04:03:54;;;;;;;5.60;4.77;;;12.60;99.90;;;;;;468466;254;28379;-76
2023/09/06 04:05:57;;;;;;;5.33;4.27;;;12.70;99.90;;;;;;471803;252;28217;-74
2023/09/06 04:07:57;;;;;;;6.60;4.90;;;12.80;99.90;;;;;;468503;254;28910;-75
2023/09/06 04:10:02;;;;;;;7.70;4.30;;;12.70;99.90;;;;;;471904;252;28259;-75
2023/09/06 04:11:59;;;;;;;8.53;4.27;;;12.80;99.90;;;;;;468325;254;28148;-74
2023/09/06 04:14:01;;;;;;;7.40;4.47;;;12.80;99.90;;;;;;471848;252;28305;-75
2023/09/06 04:16:02;;;;;;;7.07;4.20;;;12.80;99.90;;;;;;468588;249;29543;-74
2023/09/06 04:18:03;;;;;;;8.60;4.63;;;12.80;99.90;;;;;;471831;252;28745;-74
2023/09/06 04:20:18;;;;;;;5.77;4.40;;;12.70;99.90;;;;;;468648;253;28794;-76
2023/09/06 04:22:05;;;;;;;8.30;4.73;;;12.70;99.90;;;;;;470664;252;28154;-75
2023/09/06 04:24:07;;;;;;;4.93;4.40;;;12.60;99.90;;;;;;468478;254;28100;-76
2023/09/06 04:26:08;;;;;;;5.87;4.37;;;12.60;99.90;;;;;;471600;252;28257;-75
2023/09/06 04:28:09;;;;;;;4.77;4.37;;;12.50;99.90;;;;;;468645;253;28200;-75
2023/09/06 04:30:10;;;;;;;6.00;4.33;;;12.50;99.90;;;;;;471869;252;28165;-75
2023/09/06 04:32:17;;;;;;;4.97;4.40;;;;;;;;;;468591;253;28831;-75
2023/09/06 04:34:16;;;;;;;5.50;4.67;;;;;;;;;;471566;252;28861;-75
2023/09/06 04:36:18;;;;;;;6.00;4.57;;;12.50;99.90;;;;;;471861;251;26542;-75
2023/09/06 04:38:18;;;;;;;6.10;5.50;;;12.50;99.90;;;;;;471728;252;28430;-74
2023/09/06 04:40:19;;;;;;;4.40;4.00;;;12.50;99.90;;;;;;471842;251;28122;-75
2023/09/06 04:42:20;;;;;;;5.97;4.40;;;12.40;99.90;;;;;;471883;251;28730;-75
2023/09/06 04:44:24;;;;;;;5.33;4.60;;;12.50;99.90;;;;;;471796;252;28822;-75
2023/09/06 04:46:23;;;;;;;5.40;4.57;;;12.50;99.90;;;;;;471750;252;28940;-75
2023/09/06 04:48:24;;;;;;;6.00;4.40;;;12.50;99.90;;;;;;471891;251;28035;-75
2023/09/06 04:50:25;;;;;;;4.77;4.33;;;12.50;99.90;;;;;;471867;251;28194;-75
2023/09/06 04:52:27;;;;;;;5.80;4.83;;;12.50;99.90;;;;;;471897;251;28105;-76
2023/09/06 04:54:28;;;;;;;6.27;4.57;;;12.50;99.90;;;;;;471845;251;28582;-75
2023/09/06 04:56:31;;;;;;;5.63;4.60;;;12.40;99.90;;;;;;471757;252;28811;-75
2023/09/06 04:58:32;;;;;;;7.93;5.10;;;12.40;99.90;;;;;;471798;251;28590;-74
2023/09/06 05:00:33;;;;;;;8.20;5.70;;;12.30;99.90;;;;;;471766;252;28822;-75
2023/09/06 05:02:33;;;;;;;5.77;4.87;;;12.30;99.90;;;;;;471842;252;28146;-76
2023/09/06 05:04:36;;;;;;;6.00;4.70;;;;;;;;;;471840;252;28130;-75
2023/09/06 05:06:36;;;;;;;6.00;4.90;;;12.10;99.90;;;;;;471881;251;26610;-75
2023/09/06 05:08:38;;;;;;;6.37;4.80;;;12.20;99.90;;;;;;471860;251;29313;-74
2023/09/06 05:10:42;;;;;;;5.07;4.57;;;12.20;99.90;;;;;;471901;251;28790;-76
2023/09/06 05:12:43;;;;;;;5.77;4.70;;;12.20;99.90;;;;;;471863;251;28884;-76
2023/09/06 05:14:44;;;;;;;8.67;5.60;;;12.20;99.90;;;;;;471905;250;28146;-75
2023/09/06 05:16:45;;;;;;;7.10;5.40;;;12.20;99.90;;;;;;471908;251;28429;-75
2023/09/06 05:18:47;;;;;;;5.50;4.70;;;12.10;99.90;;;;;;471863;251;28353;-74
2023/09/06 05:20:48;;;;;;;6.70;5.40;;;12.20;99.90;;;;;;471771;251;29315;-75
2023/09/06 05:22:50;;;;;;;6.70;5.10;;;;;;;;;;471921;251;29432;-75
2023/09/06 05:24:53;;;;;;;6.60;5.57;;;;;;;;;;471902;251;26605;-75
2023/09/06 05:26:54;;;;;;;6.10;5.50;;;12.20;99.90;;;;;;471891;251;27601;-75
2023/09/06 05:28:55;;;;;;;5.87;5.30;;;12.30;99.90;;;;;;471929;251;28425;-75
2023/09/06 05:30:57;;;;;;;5.70;5.10;;;12.30;99.90;;;;;;471911;251;28002;-75
2023/09/06 05:32:58;;;;;;;7.87;5.67;;;12.30;99.90;;;;;;471912;251;28380;-75
2023/09/06 05:37:08;;;;;;;7.87;5.90;;;12.40;99.90;;;;;;492117;241;28204;-77
2023/09/06 05:39:08;;;;;;;7.77;5.63;;;12.50;99.90;;;;;;492328;241;28184;-76
2023/09/06 05:41:09;;;;;;;5.90;5.13;;;12.50;99.90;;;;;;492460;241;28875;-76
2023/09/06 05:43:10;;;;;;;7.60;5.60;;;12.50;99.90;;;;;;492399;241;28831;-75
2023/09/06 05:45:11;;;;;;;6.87;5.17;;;12.60;99.90;;;;;;492447;241;28178;-75
2023/09/06 05:47:13;;;;;;;8.30;5.43;;;12.70;99.90;;;;;;492474;241;28825;-76
2023/09/06 05:49:14;;;;;;;5.80;4.80;;;12.70;99.90;;;;;;492468;241;28966;-76
2023/09/06 05:51:15;;;;;;;7.27;5.10;;;12.80;99.90;;;;;;492468;241;28708;-75
2023/09/06 05:53:16;;;;;;;6.03;5.00;;;12.90;99.90;;;;;;492441;241;28767;-76
2023/09/06 05:55:18;;;;;;;7.40;5.90;;;12.90;99.90;;;;;;492457;241;29730;-75
2023/09/06 05:57:19;;;;;;;5.90;5.30;;;12.90;99.90;;;;;;492498;241;28177;-75
2023/09/06 05:59:21;;;;;;;5.50;4.87;;;13.00;99.90;;;;;;492493;241;28280;-76
2023/09/06 06:01:22;;;;;;;5.87;5.27;;;13.00;99.90;;;;;;492488;241;28618;-75
2023/09/06 06:03:24;;;;;;;7.43;5.93;;;13.10;99.90;;;;;;492471;241;28198;-75
2023/09/06 06:05:24;;;;;;;9.43;5.13;;;13.10;99.90;;;;;;492438;241;28935;-77
2023/09/06 06:07:25;;;;;;;7.40;4.90;;;13.10;99.90;;;;;;492457;241;28392;-75
2023/09/06 06:09:27;;;;;;;6.20;5.03;;;13.10;99.90;;;;;;492495;241;28210;-76
2023/09/06 06:11:28;;;;;;;10.30;5.60;;;13.20;99.90;;;;;;492472;241;28177;-76
2023/09/06 06:13:29;;;;;;;5.80;5.30;;;13.20;99.90;;;;;;492498;241;28290;-75
2023/09/06 06:15:30;;;;;;;10.37;6.27;;;13.30;99.90;;;;;;492447;241;28253;-76
2023/09/06 06:17:32;;;;;;;7.80;5.40;;;13.30;99.90;;;;;;492442;241;28724;-75
2023/09/06 06:19:36;;;;;;;7.77;5.57;;;13.40;99.90;;;;;;492410;241;28656;-75
2023/09/06 06:21:37;;;;;;;9.70;5.63;;;13.40;99.90;;;;;;492456;241;28790;-76
2023/09/06 06:23:38;;;;;;;9.33;5.20;;;13.40;99.90;;;;;;492453;241;28257;-76
2023/09/06 06:25:39;;;;;;;9.67;6.30;;;13.50;99.90;;;;;;492458;241;28268;-76
2023/09/06 06:27:41;;;;;;;8.10;5.53;;;13.70;99.90;;;;;;492470;241;28337;-76
2023/09/06 06:29:42;;;;;;;6.70;5.53;;;13.80;99.90;;;;;;492461;241;28466;-75
2023/09/06 06:31:44;;;;;;;8.80;5.40;;;13.90;99.90;;;;;;492459;241;28468;-76
2023/09/06 06:33:44;;;;;;;8.23;5.70;;;14.00;99.90;;;;;;492352;241;28464;-75
2023/09/06 06:35:46;;;;;;;9.20;5.13;;;14.20;99.90;;;;;;492426;241;28481;-75
2023/09/06 06:37:47;;;;;;;5.80;5.20;;;14.40;99.90;;;;;;492469;241;28447;-77
2023/09/06 06:39:49;;;;;;;7.10;5.10;;;14.70;99.90;;;;;;492440;241;28493;-75
2023/09/06 06:41:50;;;;;;;5.80;4.20;;;14.70;99.90;;;;;;492428;241;29415;-77
2023/09/06 06:43:51;;;;;;;5.23;4.73;;;15.00;99.90;;;;;;492375;241;30106;-75
2023/09/06 06:45:52;;;;;;;5.80;4.80;;;15.20;99.90;;;;;;488966;236;29449;-76
2023/09/06 06:47:53;;;;;;;7.67;5.17;;;15.10;99.90;;;;;;483757;245;29388;-77
2023/09/06 06:49:54;;;;;;;6.10;5.27;;;15.10;99.90;;;;;;483802;245;28839;-75
2023/09/06 06:51:56;;;;;;;4.90;4.27;;;15.10;99.90;;;;;;483761;245;28867;-76
2023/09/06 06:53:57;;;;;;;5.20;4.70;;;15.30;99.90;;;;;;483755;245;28759;-75
2023/09/06 06:55:58;;;;;;;5.73;5.13;;;15.30;99.90;;;;;;483750;245;28833;-76
2023/09/06 06:57:59;;;;;;;5.53;4.50;;;15.50;99.90;;;;;;483755;245;28814;-77
2023/09/06 07:00:01;;;;;;;7.10;5.50;;;15.80;99.90;;;;;;483748;246;28767;-75
2023/09/06 07:02:02;;;;;;;6.13;4.30;;;16.20;99.90;;;;;;483751;245;28823;-75
2023/09/06 07:04:07;;;;;;;4.70;4.20;;;16.40;99.90;;;;;;483764;245;28785;-77
2023/09/06 07:06:05;;;;;;;5.10;4.33;;;16.70;99.90;;;;;;483556;246;28802;-75
2023/09/06 07:08:06;;;;;;;5.00;4.37;;;16.80;99.90;;;;;;483764;245;28781;-76
2023/09/06 07:10:07;;;;;;;6.47;4.60;;;17.00;99.90;;;;;;483770;245;28766;-75
2023/09/06 07:12:08;;;;;;;5.83;4.50;;;17.20;99.90;;;;;;483753;245;28817;-75
2023/09/06 07:14:10;;;;;;;9.40;4.33;;;17.40;99.90;;;;;;483773;246;28802;-76
2023/09/06 07:16:11;;;;;;;6.93;4.17;;;17.50;99.90;;;;;;483763;245;29327;-76
2023/09/06 07:18:12;;;;;;;5.30;4.00;;;17.30;99.90;;;;;;483756;245;29311;-76
2023/09/06 07:20:13;;;;;;;4.33;3.93;;;17.20;99.90;;;;;;483781;245;29240;-75
2023/09/06 07:22:15;;;;;;;5.20;4.27;;;17.10;99.90;;;;;;483787;245;29274;-76
2023/09/06 07:24:16;;;;;;;4.60;4.20;;;17.40;99.90;;;;;;483772;245;28819;-77
2023/09/06 07:26:17;;;;;;;5.03;4.53;;;17.60;99.90;;;;;;483768;245;28763;-76
2023/09/06 07:28:18;;;;;;;8.27;4.70;;;17.80;99.90;;;;;;483683;245;28789;-76
2023/09/06 07:30:20;;;;;;;4.97;4.37;;;17.80;99.90;;;;;;483770;245;28754;-75
2023/09/06 07:32:21;;;;;;;4.60;3.80;;;18.00;99.90;;;;;;483782;245;28889;-75
2023/09/06 07:34:22;;;;;;;9.50;4.40;;;18.20;99.90;;;;;;483804;245;28803;-76
2023/09/06 07:36:23;;;;;;;6.00;4.13;;;18.30;99.90;;;;;;483774;245;28821;-75
2023/09/06 07:38:25;;;;;;;7.90;4.27;;;18.40;99.90;;;;;;483777;245;28900;-77
2023/09/06 07:40:26;;;;;;;6.03;4.20;;;18.40;99.90;;;;;;483804;245;28751;-75
2023/09/06 07:42:27;;;;;;;4.97;4.47;;;18.30;99.90;;;;;;483816;245;29328;-75
2023/09/06 07:44:32;;;;;;;5.27;4.27;;;18.30;99.90;;;;;;483801;245;29292;-76
2023/09/06 07:46:30;;;;;;;6.40;4.20;;;18.50;99.90;;;;;;483723;245;29372;-75
2023/09/06 07:48:31;;;;;;;5.60;4.50;;;18.70;99.90;;;;;;483750;246;28857;-76
2023/09/06 07:50:32;;;;;;;6.13;4.27;;;18.80;99.90;;;;;;483791;245;28791;-75
2023/09/06 07:52:33;;;;;;;3.90;3.50;;;18.80;99.90;;;;;;483790;245;28781;-75
2023/09/06 07:54:35;;;;;;;5.90;4.40;;;18.70;99.90;;;;;;483757;245;28790;-76
2023/09/06 07:56:36;;;;;;;5.97;4.30;;;18.70;99.90;;;;;;483763;246;28759;-76
2023/09/06 07:58:37;;;;;;;4.97;4.47;;;18.90;99.90;;;;;;483721;245;28802;-76
2023/09/06 08:00:38;;;;;;;6.50;4.50;;;18.90;99.90;;;;;;483726;245;29127;-77
2023/09/06 08:02:40;;;;;;;6.00;3.97;;;18.80;99.90;;;;;;483754;246;28842;-76
2023/09/06 08:04:41;;;;;;;4.43;4.03;;;19.00;99.90;;;;;;483774;245;28801;-76
2023/09/06 08:06:42;;;;;;;10.80;4.23;;;19.20;99.90;;;;;;483759;245;29264;-76
2023/09/06 08:08:43;;;;;;;3.80;3.50;;;19.20;99.90;;;;;;483744;245;29285;-75
2023/09/06 08:10:46;;;;;;;6.27;4.40;;;19.40;99.90;;;;;;483783;245;29352;-77
2023/09/06 08:12:46;;;;;;;4.03;3.63;;;19.40;99.90;;;;;;483712;246;28851;-76
2023/09/06 08:14:47;;;;;;;4.93;4.13;;;19.30;99.90;;;;;;483754;245;28797;-76
2023/09/06 08:16:49;;;;;;;5.70;4.13;;;19.50;99.90;;;;;;483724;245;28877;-76
2023/09/06 08:18:50;;;;;;;8.60;4.27;;;19.50;99.90;;;;;;483754;245;28794;-76
2023/09/06 08:20:51;;;;;;;6.00;4.90;;;19.50;99.90;;;;;;483783;245;28787;-77
2023/09/06 08:22:52;;;;;;;10.40;6.30;;;19.60;99.90;;;;;;483794;245;28809;-75
2023/09/06 08:24:53;;;;;;;6.50;4.60;;;19.50;99.90;;;;;;483753;245;28835;-75
2023/09/06 08:26:55;;;;;;;7.40;4.20;;;19.80;99.90;;;;;;482827;245;28777;-75
2023/09/06 08:28:56;;;;;;;7.33;4.40;;;19.70;99.90;;;;;;485428;244;29310;-76
2023/09/06 08:30:59;;;;;;;4.50;3.90;;;19.80;99.90;;;;;;485431;244;29355;-77
2023/09/06 08:32:58;;;;;;;5.87;4.30;;;19.80;99.90;;;;;;485448;244;29305;-76
2023/09/06 08:35:00;;;;;;;4.60;3.97;;;19.90;99.90;;;;;;485363;244;29294;-76
2023/09/06 08:37:01;;;;;;;6.40;3.80;;;19.90;99.90;;;;;;485425;244;28742;-76
2023/09/06 08:39:03;;;;;;;4.33;3.90;;;19.80;99.90;;;;;;485438;244;28753;-76
2023/09/06 08:41:03;;;;;;;5.70;3.93;;;20.20;99.90;;;;;;485448;244;28787;-77
2023/09/06 08:43:05;;;;;;;5.53;4.10;;;20.20;99.90;;;;;;485428;244;28841;-76
2023/09/06 08:45:09;;;;;;;4.93;4.00;;;20.30;99.90;;;;;;485416;244;28882;-76
2023/09/06 08:47:07;;;;;;;5.63;4.30;;;20.30;99.90;;;;;;485250;245;28762;-76
2023/09/06 08:49:08;;;;;;;6.90;4.27;;;20.10;99.90;;;;;;485430;244;28775;-76
2023/09/06 08:51:11;;;;;;;6.03;4.13;;;20.20;99.90;;;;;;485455;244;28779;-76
2023/09/06 08:53:11;;;;;;;4.77;4.00;;;20.40;99.90;;;;;;485428;244;28866;-76
2023/09/06 08:55:12;;;;;;;4.67;4.10;;;20.40;99.90;;;;;;485423;244;29259;-76
2023/09/06 08:57:13;;;;;;;4.23;3.83;;;20.60;99.90;;;;;;485428;244;29970;-75
2023/09/06 08:59:15;;;;;;;4.03;3.63;;;20.60;99.90;;;;;;485446;244;29346;-76
2023/09/06 09:01:16;;;;;;;4.77;3.80;;;20.60;99.90;;;;;;485429;244;29056;-77
2023/09/06 09:03:17;;;;;;;6.70;4.13;;;20.60;99.90;;;;;;485453;244;28762;-76
2023/09/06 09:05:18;;;;;;;5.27;4.10;;;20.50;99.90;;;;;;485450;244;28796;-77
2023/09/06 09:07:20;;;;;;;4.37;3.97;;;20.80;99.90;;;;;;485469;244;28770;-76
2023/09/06 09:09:21;;;;;;;4.97;3.90;;;21.10;99.90;;;;;;485450;244;28778;-76
2023/09/06 09:11:22;;;;;;;5.20;4.00;;;21.00;99.90;;;;;;485446;244;28802;-76
2023/09/06 09:13:23;;;;;;;5.33;4.00;;;20.90;99.90;;;;;;485453;245;28755;-76
2023/09/06 09:15:28;;;;;;;6.90;4.27;;;20.90;99.90;;;;;;485444;244;28790;-76
2023/09/06 09:17:29;;;;;;;5.70;4.10;;;21.00;99.90;;;;;;485416;244;28795;-76
2023/09/06 09:19:30;;;;;;;4.20;3.80;;;21.00;99.90;;;;;;485447;244;29322;-77
2023/09/06 09:21:31;;;;;;;4.20;3.80;;;21.00;99.90;;;;;;485457;244;28760;-76
2023/09/06 09:23:33;;;;;;;4.87;3.97;;;21.00;99.90;;;;;;485453;244;29243;-76
2023/09/06 09:25:35;;;;;;;5.37;4.60;;;21.30;99.90;;;;;;485440;244;29312;-75
2023/09/06 09:27:35;;;;;;;5.20;3.70;;;21.40;99.90;;;;;;485431;244;29338;-76
2023/09/06 09:29:36;;;;;;;4.83;4.13;;;21.30;99.90;;;;;;485394;244;29288;-77
2023/09/06 09:31:40;;;;;;;4.70;4.10;;;21.40;99.90;;;;;;485438;244;28813;-75
2023/09/06 09:33:39;;;;;;;5.63;3.77;;;21.40;99.90;;;;;;485417;244;28791;-77
2023/09/06 09:35:40;;;;;;;4.00;3.60;;;21.50;99.90;;;;;;485374;244;28759;-75
2023/09/06 09:37:41;;;;;;;5.73;4.03;;;21.40;99.90;;;;;;485405;244;28771;-76
2023/09/06 09:39:43;;;;;;;5.40;3.70;;;21.50;99.90;;;;;;485460;245;29214;-77
2023/09/06 09:41:44;;;;;;;5.90;4.30;;;21.60;99.90;;;;;;485426;244;28823;-76
2023/09/06 09:43:45;;;;;;;6.30;4.60;;;21.80;99.90;;;;;;485415;244;28785;-76
2023/09/06 09:45:46;;;;;;;5.93;4.20;;;21.90;99.90;;;;;;485417;244;28805;-76
2023/09/06 09:47:48;;;;;;;6.20;4.00;;;21.90;99.90;;;;;;485299;245;28870;-75
2023/09/06 09:49:49;;;;;;;5.37;3.90;;;21.90;99.90;;;;;;485449;244;29276;-77
2023/09/06 09:51:50;;;;;;;4.67;3.87;;;21.90;99.90;;;;;;485440;244;29314;-75
2023/09/06 09:53:51;;;;;;;6.63;4.37;;;22.10;99.90;;;;;;485446;241;29270;-77
2023/09/06 09:55:53;;;;;;;4.80;3.97;;;22.10;99.90;;;;;;485456;244;28740;-76
2023/09/06 09:57:54;;;;;;;5.30;3.80;;;22.00;99.90;;;;;;485397;244;28751;-76
2023/09/06 09:59:55;;;;;;;6.33;3.93;;;21.80;99.90;;;;;;485407;244;28886;-77
2023/09/06 10:01:57;;;;;;;4.03;3.70;;;21.90;99.90;;;;;;485418;244;28886;-76
2023/09/06 10:03:58;;;;;;;4.10;3.70;;;22.00;99.90;;;;;;485411;244;28813;-76
2023/09/06 10:05:59;;;;;;;4.27;3.87;;;21.90;99.90;;;;;;485424;244;28751;-75
2023/09/06 10:08:00;;;;;;;4.60;3.70;;;21.90;99.90;;;;;;485417;244;28755;-76
2023/09/06 10:10:02;;;;;;;4.00;3.60;;;22.30;99.90;;;;;;485421;244;28858;-77
2023/09/06 10:12:03;;;;;;;6.10;4.30;;;22.50;99.90;;;;;;485404;244;28745;-76
2023/09/06 10:14:04;;;;;;;6.30;4.10;;;22.50;99.90;;;;;;485418;244;29326;-76
2023/09/06 10:16:05;;;;;;;4.50;3.80;;;22.50;99.90;;;;;;485415;244;29186;-75
2023/09/06 10:18:06;;;;;;;4.60;4.03;;;22.60;99.90;;;;;;485413;244;29218;-76
2023/09/06 10:20:12;;;;;;;5.67;4.27;;;22.60;99.90;;;;;;485421;244;28797;-77
2023/09/06 10:22:09;;;;;;;3.73;3.43;;;22.60;99.90;;;;;;485306;244;28852;-76
2023/09/06 10:24:10;;;;;;;5.23;4.10;;;22.60;99.90;;;;;;485420;245;28847;-76
2023/09/06 10:26:11;;;;;;;4.17;3.83;;;22.60;99.90;;;;;;485406;244;28833;-75
2023/09/06 10:28:13;;;;;;;5.47;3.90;;;22.90;99.90;;;;;;485395;244;28763;-76
2023/09/06 10:30:20;;;;;;;5.60;4.13;;;23.00;99.90;;;;;;485440;244;28810;-76
2023/09/06 10:32:24;;;;;;;3.83;3.53;;;23.10;99.90;;;;;;485462;244;28738;-76
2023/09/06 10:34:22;;;;;;;4.27;3.87;;;23.00;99.90;;;;;;485357;244;28847;-76
2023/09/06 10:36:27;;;;;;;3.73;3.43;;;23.00;99.90;;;;;;485446;244;28739;-75
2023/09/06 10:38:27;;;;;;;4.10;3.70;;;23.00;99.90;;;;;;485418;241;28878;-76
2023/09/06 10:40:26;;;;;;;5.10;4.13;;;23.00;99.90;;;;;;485410;244;28858;-77
2023/09/06 10:42:27;;;;;;;4.80;4.40;;;23.20;99.90;;;;;;485427;244;28739;-76